createdAt,value
2023-03-18T00:01:12.950Z,10.50
2023-03-18T00:03:41.256Z,10.47
2023-03-18T00:06:11.718Z,12.73
2023-03-18T00:08:41.734Z,14.07
2023-03-18T00:11:11.182Z,12.80
2023-03-18T00:13:39.558Z,10.70
2023-03-18T00:16:08.906Z,11.17
2023-03-18T00:18:39.362Z,12.10
2023-03-18T00:21:07.995Z,15.37
2023-03-18T00:23:37.138Z,12.50
2023-03-18T00:26:05.902Z,9.53
2023-03-18T00:28:34.015Z,11.00
2023-03-18T00:31:09.189Z,10.70
2023-03-18T00:33:40.679Z,11.87
2023-03-18T00:36:10.647Z,12.30
2023-03-18T00:38:39.811Z,16.47
2023-03-18T00:41:12.474Z,11.97
2023-03-18T00:43:47.308Z,12.30
2023-03-18T00:46:17.756Z,14.47
2023-03-18T00:48:48.226Z,15.30
2023-03-18T00:51:18.203Z,13.90
2023-03-18T00:53:48.057Z,13.87
2023-03-18T00:56:18.148Z,15.90
2023-03-18T00:58:46.862Z,14.00
2023-03-18T01:01:15.402Z,13.40
2023-03-18T01:03:45.119Z,13.50
2023-03-18T01:06:17.492Z,12.93
2023-03-18T01:08:46.077Z,12.67
2023-03-18T01:11:14.437Z,16.83
2023-03-18T01:13:42.517Z,14.07
2023-03-18T01:16:12.415Z,12.40
2023-03-18T01:18:41.724Z,12.30
2023-03-18T01:21:15.346Z,11.13
2023-03-18T01:23:43.581Z,11.80
2023-03-18T01:26:11.850Z,13.27
2023-03-18T01:28:40.196Z,11.50
2023-03-18T01:31:08.304Z,11.57
2023-03-18T01:33:36.762Z,13.53
2023-03-18T01:36:05.364Z,11.13
2023-03-18T01:38:35.008Z,10.67
2023-03-18T01:41:03.340Z,11.03
2023-03-18T01:43:34.131Z,11.70
2023-03-18T01:46:23.488Z,10.70
2023-03-18T01:48:56.174Z,11.97
2023-03-18T01:51:26.650Z,11.80
2023-03-18T01:53:59.970Z,14.27
2023-03-18T01:56:28.357Z,12.13
2023-03-18T01:58:58.888Z,12.93
2023-03-18T02:01:33.729Z,10.23
2023-03-18T02:04:03.101Z,11.43
2023-03-18T02:06:31.257Z,11.60
2023-03-18T02:09:02.198Z,12.33
2023-03-18T02:11:33.322Z,11.23
2023-03-18T02:14:02.419Z,11.03
2023-03-18T02:16:34.275Z,11.23
2023-03-18T02:19:10.855Z,13.30
2023-03-18T02:21:48.809Z,14.17
2023-03-18T02:24:28.814Z,12.87
2023-03-18T02:27:01.694Z,10.63
2023-03-18T02:29:34.865Z,9.87
2023-03-18T02:32:06.019Z,9.97
2023-03-18T02:34:36.168Z,12.37
2023-03-18T02:37:04.436Z,10.57
2023-03-18T02:39:32.903Z,11.83
2023-03-18T02:42:01.278Z,11.37
2023-03-18T02:44:30.854Z,13.07
2023-03-18T02:47:02.895Z,11.50
2023-03-18T02:49:32.698Z,11.00
2023-03-18T02:52:00.932Z,12.43
2023-03-18T02:54:32.303Z,10.50
2023-03-18T02:57:00.547Z,12.03
2023-03-18T02:59:32.416Z,10.87
2023-03-18T03:02:00.898Z,10.80
2023-03-18T03:04:29.362Z,10.50
2023-03-18T03:06:58.683Z,11.90
2023-03-18T03:09:26.704Z,11.27
2023-03-18T03:11:54.696Z,11.57
2023-03-18T03:14:22.771Z,10.97
2023-03-18T03:16:52.136Z,12.17
2023-03-18T03:19:21.118Z,9.63
2023-03-18T03:21:49.289Z,11.40
2023-03-18T03:24:17.359Z,10.27
2023-03-18T03:26:45.580Z,11.70
2023-03-18T03:29:14.431Z,10.93
2023-03-18T03:31:42.936Z,10.23
2023-03-18T03:34:12.404Z,8.93
2023-03-18T03:36:40.842Z,10.10
2023-03-18T03:39:08.803Z,9.90
2023-03-18T03:41:36.805Z,15.13
2023-03-18T03:44:05.365Z,12.07
2023-03-18T03:46:33.625Z,10.17
2023-03-18T03:49:01.638Z,13.30
2023-03-18T03:51:31.334Z,10.67
2023-03-18T03:53:59.566Z,12.17
2023-03-18T03:56:29.050Z,11.73
2023-03-18T03:58:57.034Z,11.47
2023-03-18T04:01:25.032Z,9.87
2023-03-18T04:03:53.601Z,9.73
2023-03-18T04:06:21.692Z,13.10
2023-03-18T04:08:52.089Z,12.00
2023-03-18T04:11:20.384Z,9.73
2023-03-18T04:13:48.381Z,10.40
2023-03-18T04:16:17.042Z,10.33
2023-03-18T04:18:45.534Z,12.27
2023-03-18T04:21:14.094Z,11.43
2023-03-18T04:23:42.356Z,12.83
2023-03-18T04:26:13.088Z,9.83
2023-03-18T04:28:41.508Z,9.33
2023-03-18T04:31:09.553Z,12.07
2023-03-18T04:33:37.750Z,13.70
2023-03-18T04:36:06.518Z,10.20
2023-03-18T04:38:35.398Z,10.07
2023-03-18T04:41:04.506Z,10.53
2023-03-18T04:43:33.941Z,10.40
2023-03-18T04:46:02.466Z,14.13
2023-03-18T04:48:30.629Z,10.27
2023-03-18T04:50:58.714Z,9.30
2023-03-18T04:53:26.761Z,8.83
2023-03-18T04:55:55.326Z,9.50
2023-03-18T04:58:24.217Z,10.20
2023-03-18T05:00:53.739Z,10.30
2023-03-18T05:03:22.818Z,10.70
2023-03-18T05:05:51.375Z,14.23
2023-03-18T05:08:19.391Z,11.20
2023-03-18T05:10:47.843Z,10.73
2023-03-18T05:13:16.138Z,10.73
2023-03-18T05:15:44.153Z,9.93
2023-03-18T05:18:14.267Z,13.57
2023-03-18T05:20:42.226Z,10.23
2023-03-18T05:23:10.830Z,12.60
2023-03-18T05:25:39.015Z,9.67
2023-03-18T05:28:07.625Z,9.57
2023-03-18T05:30:39.358Z,10.70
2023-03-18T05:33:07.824Z,9.87
2023-03-18T05:35:37.536Z,9.47
2023-03-18T05:38:06.863Z,9.73
2023-03-18T05:40:35.367Z,8.70
2023-03-18T05:43:04.145Z,10.97
2023-03-18T05:45:32.744Z,8.67
2023-03-18T05:48:01.721Z,7.57
2023-03-18T05:50:33.842Z,9.93
2023-03-18T05:53:04.355Z,9.53
2023-03-18T05:55:33.743Z,9.57
2023-03-18T05:58:01.928Z,8.97
2023-03-18T06:00:31.172Z,11.00
2023-03-18T06:03:01.271Z,10.37
2023-03-18T06:05:29.822Z,10.63
2023-03-18T06:07:59.377Z,10.43
2023-03-18T06:10:29.456Z,11.07
2023-03-18T06:12:57.470Z,11.63
2023-03-18T06:15:25.674Z,10.50
2023-03-18T06:17:53.827Z,11.27
2023-03-18T06:20:23.400Z,13.70
2023-03-18T06:22:52.220Z,9.80
2023-03-18T06:25:22.376Z,9.47
2023-03-18T06:27:52.337Z,9.87
2023-03-18T06:30:21.471Z,7.50
2023-03-18T06:32:49.555Z,9.23
2023-03-18T06:35:19.230Z,7.87
2023-03-18T06:37:47.253Z,7.27
2023-03-18T06:40:15.665Z,8.93
2023-03-18T06:42:44.675Z,10.27
2023-03-18T06:45:15.254Z,8.70
2023-03-18T06:47:44.012Z,7.33
2023-03-18T06:50:13.619Z,7.40
2023-03-18T06:52:42.314Z,6.43
2023-03-18T06:55:11.136Z,6.90
2023-03-18T06:57:42.069Z,9.67
2023-03-18T07:00:12.130Z,6.43
2023-03-18T07:02:41.939Z,6.33
2023-03-18T07:05:12.741Z,7.17
2023-03-18T07:07:40.925Z,7.97
2023-03-18T07:10:12.149Z,15.13
2023-03-18T07:12:40.361Z,11.83
2023-03-18T07:15:09.379Z,8.27
2023-03-18T07:17:37.471Z,8.57
2023-03-18T07:20:08.075Z,7.03
2023-03-18T07:22:37.494Z,6.40
2023-03-18T07:25:06.289Z,6.10
2023-03-18T07:27:34.746Z,9.07
2023-03-18T07:30:02.823Z,8.30
2023-03-18T07:32:31.754Z,7.30
2023-03-18T07:35:00.692Z,7.97
2023-03-18T07:37:30.157Z,7.23
2023-03-18T07:39:58.265Z,5.20
2023-03-18T07:42:26.358Z,7.57
2023-03-18T07:44:55.224Z,5.87
2023-03-18T07:47:25.995Z,6.57
2023-03-18T07:49:54.018Z,6.27
2023-03-18T07:52:22.214Z,6.03
2023-03-18T07:54:52.344Z,5.67
2023-03-18T07:57:20.415Z,8.77
2023-03-18T07:59:48.810Z,7.17
2023-03-18T08:02:16.974Z,7.37
2023-03-18T08:04:46.848Z,9.13
2023-03-18T08:07:15.201Z,6.43
2023-03-18T08:09:43.342Z,5.70
2023-03-18T08:12:13.897Z,6.63
2023-03-18T08:14:41.939Z,5.60
2023-03-18T08:17:10.727Z,8.27
2023-03-18T08:19:38.949Z,4.90
2023-03-18T08:22:08.219Z,5.70
2023-03-18T08:24:37.504Z,7.73
2023-03-18T08:27:06.205Z,6.43
2023-03-18T08:29:35.682Z,5.87
2023-03-18T08:32:03.965Z,4.97
2023-03-18T08:34:32.449Z,6.27
2023-03-18T08:37:01.332Z,3.33
2023-03-18T08:39:29.360Z,6.83
2023-03-18T08:41:59.673Z,3.63
2023-03-18T08:44:27.680Z,4.90
2023-03-18T08:46:57.832Z,5.20
2023-03-18T08:49:26.852Z,5.17
2023-03-18T08:51:54.931Z,4.10
2023-03-18T08:54:23.225Z,5.73
2023-03-18T08:56:52.666Z,5.90
2023-03-18T08:59:20.697Z,4.80
2023-03-18T09:01:49.527Z,4.53
2023-03-18T09:04:20.209Z,8.03
2023-03-18T09:06:49.097Z,5.27
2023-03-18T09:09:17.132Z,5.57
2023-03-18T09:11:46.364Z,6.57
2023-03-18T09:14:15.275Z,3.80
2023-03-18T09:16:43.639Z,3.30
2023-03-18T09:19:12.169Z,5.43
2023-03-18T09:21:41.577Z,6.37
2023-03-18T09:24:10.514Z,6.67
2023-03-18T09:26:39.670Z,4.23
2023-03-18T09:29:07.747Z,7.10
2023-03-18T09:31:35.774Z,4.00
2023-03-18T09:34:03.814Z,6.53
2023-03-18T09:36:31.920Z,6.67
2023-03-18T09:39:03.200Z,6.40
2023-03-18T09:41:42.973Z,6.33
2023-03-18T09:44:17.871Z,7.43
2023-03-18T09:47:05.837Z,5.83
2023-03-18T09:49:51.697Z,6.60
2023-03-18T09:52:24.868Z,6.13
2023-03-18T09:54:59.809Z,6.13
2023-03-18T09:57:31.185Z,5.43
2023-03-18T10:00:06.385Z,4.93
2023-03-18T10:02:39.638Z,4.87
2023-03-18T10:05:15.253Z,5.80
2023-03-18T10:07:44.664Z,7.33
2023-03-18T10:10:24.122Z,6.87
2023-03-18T10:12:57.863Z,7.67
2023-03-18T10:15:32.542Z,4.03
2023-03-18T10:18:06.538Z,5.90
2023-03-18T10:20:45.186Z,9.47
2023-03-18T10:23:22.303Z,8.10
2023-03-18T10:25:54.683Z,8.00
2023-03-18T10:28:54.468Z,6.80
2023-03-18T10:31:34.081Z,8.90
2023-03-18T10:34:06.466Z,8.60
2023-03-18T10:36:45.185Z,6.23
2023-03-18T10:39:19.523Z,7.10
2023-03-18T10:41:54.601Z,8.67
2023-03-18T10:44:26.674Z,5.80
2023-03-18T10:46:59.912Z,7.82
2023-03-18T10:49:32.877Z,6.07
2023-03-18T10:52:07.893Z,6.60
2023-03-18T10:54:41.533Z,6.38
2023-03-18T10:57:15.901Z,6.32
2023-03-18T10:59:45.357Z,5.18
2023-03-18T11:02:20.814Z,6.57
2023-03-18T11:04:54.332Z,9.27
2023-03-18T11:07:25.992Z,5.50
2023-03-18T11:09:56.256Z,6.00
2023-03-18T11:12:30.494Z,5.13
2023-03-18T11:14:58.669Z,5.30
2023-03-18T11:17:31.110Z,5.78
2023-03-18T11:20:08.019Z,4.95
2023-03-18T11:22:38.991Z,7.25
2023-03-18T11:25:16.657Z,5.65
2023-03-18T11:27:47.161Z,7.20
2023-03-18T11:30:33.020Z,5.72
2023-03-18T11:33:07.608Z,5.63
2023-03-18T11:35:41.975Z,6.75
2023-03-18T11:38:16.799Z,4.82
2023-03-18T11:40:44.993Z,6.65
2023-03-18T11:43:23.740Z,4.72
2023-03-18T11:45:55.095Z,6.38
2023-03-18T11:48:34.577Z,4.90
2023-03-18T11:51:35.152Z,4.93
2023-03-18T11:54:16.859Z,4.82
2023-03-18T11:56:49.073Z,8.02
2023-03-18T12:02:37.156Z,3.85
2023-03-18T12:05:38.277Z,4.13
2023-03-18T12:08:17.307Z,6.20
2023-03-18T12:10:48.699Z,4.07
2023-03-18T12:13:29.757Z,4.57
2023-03-18T12:16:08.437Z,5.47
2023-03-18T12:18:50.925Z,5.57
2023-03-18T12:21:38.048Z,4.33
2023-03-18T12:24:24.246Z,4.63
2023-03-18T12:27:01.990Z,4.80
2023-03-18T12:30:02.206Z,3.43
2023-03-18T12:32:36.629Z,4.17
2023-03-18T12:35:27.663Z,5.50
2023-03-18T12:38:13.616Z,4.80
2023-03-18T12:40:50.598Z,3.80
2023-03-18T12:43:34.084Z,5.83
2023-03-18T12:46:08.096Z,7.03
2023-03-18T12:48:44.841Z,5.73
2023-03-18T12:51:18.587Z,5.83
2023-03-18T12:53:50.155Z,4.83
2023-03-18T12:56:21.607Z,4.67
2023-03-18T12:58:54.160Z,5.40
2023-03-18T13:01:28.054Z,6.23
2023-03-18T13:04:02.012Z,5.63
2023-03-18T13:06:37.519Z,5.57
2023-03-18T13:09:16.029Z,4.60
2023-03-18T13:11:58.867Z,3.83
2023-03-18T13:14:32.663Z,4.87
2023-03-18T13:17:01.920Z,5.40
2023-03-18T13:19:32.666Z,5.73
2023-03-18T13:22:12.368Z,4.07
2023-03-18T13:25:15.645Z,3.70
2023-03-18T13:28:03.285Z,5.33
2023-03-18T13:30:41.304Z,4.43
2023-03-18T13:33:35.563Z,4.10
2023-03-18T13:36:39.473Z,7.47
2023-03-18T13:39:20.672Z,4.53
2023-03-18T13:42:14.811Z,5.23
2023-03-18T13:44:47.212Z,3.87
2023-03-18T13:47:18.505Z,5.90
2023-03-18T13:49:47.608Z,4.80
2023-03-18T13:52:29.932Z,4.63
2023-03-18T13:55:02.253Z,4.93
2023-03-18T13:57:49.045Z,4.57
2023-03-18T14:00:31.723Z,6.47
2023-03-18T14:03:27.049Z,6.30
2023-03-18T14:06:23.366Z,5.07
2023-03-18T14:08:53.632Z,6.20
2023-03-18T14:11:50.278Z,6.33
2023-03-18T14:14:42.744Z,5.77
2023-03-18T14:17:25.649Z,7.13
2023-03-18T14:19:57.109Z,4.67
2023-03-18T14:22:35.671Z,4.30
2023-03-18T14:25:21.614Z,5.80
2023-03-18T14:27:52.500Z,5.53
2023-03-18T14:30:49.022Z,6.60
2023-03-18T14:33:48.532Z,6.00
2023-03-18T14:36:17.497Z,6.43
2023-03-18T14:38:50.643Z,7.07
2023-03-18T14:41:25.756Z,5.97
2023-03-18T14:44:09.986Z,6.17
2023-03-18T14:46:43.199Z,5.33
2023-03-18T14:49:36.468Z,6.43
2023-03-18T14:52:10.580Z,5.27
2023-03-18T14:54:46.038Z,6.33
2023-03-18T14:57:16.691Z,7.60
2023-03-18T14:59:45.810Z,6.50
2023-03-18T15:02:24.545Z,7.63
2023-03-18T15:04:55.490Z,6.20
2023-03-18T15:07:33.730Z,5.37
2023-03-18T15:10:05.779Z,6.27
2023-03-18T15:12:35.315Z,8.27
2023-03-18T15:15:03.920Z,8.23
2023-03-18T15:17:32.220Z,6.03
2023-03-18T15:20:01.838Z,8.43
2023-03-18T15:22:32.182Z,8.50
2023-03-18T15:25:03.789Z,8.47
2023-03-18T15:27:37.389Z,7.93
2023-03-18T15:30:11.745Z,8.00
2023-03-18T15:32:46.253Z,8.77
2023-03-18T15:35:19.275Z,8.63
2023-03-18T15:37:48.346Z,7.63
2023-03-18T15:40:31.222Z,6.73
2023-03-18T15:43:06.454Z,6.70
2023-03-18T15:45:35.515Z,6.33
2023-03-18T15:48:09.129Z,6.10
2023-03-18T15:50:37.739Z,6.33
2023-03-18T15:53:19.105Z,6.53
2023-03-18T15:55:52.765Z,6.47
2023-03-18T15:58:25.765Z,7.67
2023-03-18T16:00:55.573Z,6.80
2023-03-18T16:03:26.026Z,7.20
2023-03-18T16:05:55.535Z,7.03
2023-03-18T16:08:24.407Z,7.90
2023-03-18T16:10:54.867Z,9.17
2023-03-18T16:13:27.360Z,8.27
2023-03-18T16:15:55.456Z,7.97
2023-03-18T16:18:23.834Z,10.40
2023-03-18T16:20:53.875Z,7.57
2023-03-18T16:23:25.488Z,6.37
2023-03-18T16:25:57.555Z,8.23
2023-03-18T16:28:28.454Z,10.83
2023-03-18T16:30:57.648Z,7.13
2023-03-18T16:33:26.213Z,9.20
2023-03-18T16:35:59.710Z,10.50
2023-03-18T16:38:28.700Z,10.43
2023-03-18T16:40:57.480Z,6.20
2023-03-18T16:43:29.155Z,9.20
2023-03-18T16:46:03.974Z,7.07
2023-03-18T16:48:32.247Z,8.83
2023-03-18T16:51:02.533Z,9.23
2023-03-18T16:53:33.227Z,10.63
2023-03-18T16:56:05.588Z,10.17
2023-03-18T16:58:36.717Z,9.57
2023-03-18T17:01:07.261Z,10.77
2023-03-18T17:03:35.980Z,15.80
2023-03-18T17:06:04.395Z,15.03
2023-03-18T17:08:33.120Z,12.63
2023-03-18T17:11:04.052Z,11.17
2023-03-18T17:13:37.825Z,10.43
2023-03-18T17:16:06.436Z,11.10
2023-03-18T17:18:34.820Z,11.53
2023-03-18T17:21:03.640Z,11.70
2023-03-18T17:23:32.003Z,10.20
2023-03-18T17:26:02.780Z,12.07
2023-03-18T17:28:37.693Z,11.37
2023-03-18T17:31:06.799Z,8.83
2023-03-18T17:33:37.187Z,8.63
2023-03-18T17:36:06.965Z,9.37
2023-03-18T17:38:35.831Z,9.90
2023-03-18T17:41:07.135Z,12.10
2023-03-18T17:43:37.729Z,9.97
2023-03-18T17:46:07.441Z,11.67
2023-03-18T17:48:37.303Z,9.43
2023-03-18T17:51:09.475Z,12.57
2023-03-18T17:53:39.472Z,10.10
2023-03-18T17:56:09.823Z,12.93
2023-03-18T17:58:46.770Z,13.20
2023-03-18T18:01:17.555Z,11.83
2023-03-18T18:03:46.072Z,15.27
2023-03-18T18:06:18.437Z,14.20
2023-03-18T18:08:47.017Z,10.80
2023-03-18T18:11:21.031Z,13.20
2023-03-18T18:13:50.916Z,9.97
2023-03-18T18:16:19.933Z,13.93
2023-03-18T18:18:49.978Z,10.93
2023-03-18T18:21:21.669Z,10.97
2023-03-18T18:23:50.118Z,15.60
2023-03-18T18:26:21.317Z,11.43
2023-03-18T18:28:52.139Z,16.70
2023-03-18T18:31:22.028Z,14.17
2023-03-18T18:33:50.971Z,14.93
2023-03-18T18:36:19.640Z,15.57
2023-03-18T18:38:47.762Z,15.70
2023-03-18T18:41:15.828Z,15.23
2023-03-18T18:43:44.715Z,14.23
2023-03-18T18:46:15.266Z,12.13
2023-03-18T18:48:48.157Z,15.63
2023-03-18T18:51:18.708Z,13.37
2023-03-18T18:53:47.689Z,17.77
2023-03-18T18:56:19.928Z,13.50
2023-03-18T18:58:49.296Z,15.47
2023-03-18T19:01:19.433Z,15.37
2023-03-18T19:03:48.435Z,15.07
2023-03-18T19:06:26.321Z,14.00
2023-03-18T19:08:55.462Z,15.63
2023-03-18T19:11:24.674Z,15.70
2023-03-18T19:13:54.203Z,14.17
2023-03-18T19:16:30.370Z,16.60
2023-03-18T19:18:59.294Z,14.30
2023-03-18T19:21:27.855Z,15.50
2023-03-18T19:23:58.688Z,19.03
2023-03-18T19:26:27.215Z,13.60
2023-03-18T19:29:00.029Z,13.73
2023-03-18T19:31:34.983Z,14.80
2023-03-18T19:34:07.620Z,14.47
2023-03-18T19:36:41.431Z,12.13
2023-03-18T19:39:14.902Z,12.30
2023-03-18T19:41:43.425Z,12.23
2023-03-18T19:44:18.919Z,15.70
2023-03-18T19:46:49.592Z,12.53
2023-03-18T19:49:24.414Z,15.67
2023-03-18T19:51:53.164Z,14.17
2023-03-18T19:54:28.325Z,13.40
2023-03-18T19:57:00.338Z,13.87
2023-03-18T19:59:37.449Z,17.33
2023-03-18T20:02:21.841Z,14.10
2023-03-18T20:04:51.411Z,15.13
2023-03-18T20:07:20.813Z,15.50
2023-03-18T20:09:49.440Z,11.77
2023-03-18T20:12:23.799Z,12.33
2023-03-18T20:14:52.519Z,13.20
2023-03-18T20:17:33.185Z,14.17
2023-03-18T20:20:01.923Z,12.93
2023-03-18T20:22:33.701Z,11.30
2023-03-18T20:25:04.467Z,11.57
2023-03-18T20:27:34.148Z,16.60
2023-03-18T20:30:02.390Z,11.10
2023-03-18T20:32:31.956Z,12.07
2023-03-18T20:35:02.888Z,14.90
2023-03-18T20:37:36.908Z,13.43
2023-03-18T20:40:07.429Z,14.80
2023-03-18T20:42:35.571Z,14.37
2023-03-18T20:45:04.043Z,16.03
2023-03-18T20:47:33.521Z,15.20
2023-03-18T20:50:02.636Z,20.77
2023-03-18T20:52:32.153Z,17.87
2023-03-18T20:55:00.737Z,19.03
2023-03-18T20:57:28.807Z,18.27
2023-03-18T20:59:57.172Z,19.50
2023-03-18T21:02:35.598Z,22.57
2023-03-18T21:05:04.635Z,19.87
2023-03-18T21:07:32.838Z,22.73
2023-03-18T21:10:00.935Z,21.23
2023-03-18T21:12:29.292Z,19.20
2023-03-18T21:15:00.621Z,19.83
2023-03-18T21:17:29.138Z,21.17
2023-03-18T21:20:11.139Z,20.63
2023-03-18T21:22:48.217Z,20.27
2023-03-18T21:25:19.520Z,19.03
2023-03-18T21:27:48.191Z,22.43
2023-03-18T21:30:18.051Z,22.03
2023-03-18T21:32:46.288Z,21.87
2023-03-18T21:35:21.092Z,20.07
2023-03-18T21:37:49.280Z,23.17
2023-03-18T21:40:19.291Z,20.60
2023-03-18T21:42:47.472Z,20.93
2023-03-18T21:45:17.857Z,20.17
2023-03-18T21:47:46.480Z,20.47
2023-03-18T21:50:24.011Z,19.17
2023-03-18T21:52:52.646Z,20.30
2023-03-18T21:55:21.628Z,20.27
2023-03-18T21:57:50.282Z,21.67
2023-03-18T22:00:20.517Z,18.20
2023-03-18T22:02:48.948Z,19.57
2023-03-18T22:05:19.209Z,15.80
2023-03-18T22:07:50.333Z,20.07
2023-03-18T22:10:20.260Z,20.40
2023-03-18T22:12:48.378Z,19.33
2023-03-18T22:15:36.022Z,20.83
2023-03-18T22:18:05.206Z,18.97
2023-03-18T22:20:35.215Z,17.60
2023-03-18T22:23:16.399Z,18.87
2023-03-18T22:25:45.551Z,18.40
2023-03-18T22:28:14.564Z,19.67
2023-03-18T22:30:44.105Z,19.17
2023-03-18T22:33:20.712Z,18.97
2023-03-18T22:35:48.906Z,20.07
2023-03-18T22:38:20.319Z,23.97
2023-03-18T22:40:51.898Z,22.40
2023-03-18T22:43:29.627Z,20.83
2023-03-18T22:45:58.140Z,23.23
2023-03-18T22:48:26.960Z,24.67
2023-03-18T22:50:55.645Z,24.50
2023-03-18T22:53:28.142Z,20.23
2023-03-18T22:55:57.852Z,24.20
2023-03-18T22:58:28.619Z,18.47
2023-03-18T23:00:57.252Z,22.10
2023-03-18T23:03:29.731Z,19.63
2023-03-18T23:05:59.452Z,22.10
2023-03-18T23:08:30.313Z,19.33
2023-03-18T23:11:01.516Z,18.37
2023-03-18T23:13:36.062Z,18.53
2023-03-18T23:16:05.499Z,16.90
2023-03-18T23:18:34.340Z,18.93
2023-03-18T23:21:02.800Z,16.40
2023-03-18T23:23:32.480Z,16.17
2023-03-18T23:26:01.922Z,18.83
2023-03-18T23:28:33.075Z,14.87
2023-03-18T23:31:03.337Z,16.27
2023-03-18T23:33:32.129Z,16.97
2023-03-18T23:36:00.541Z,17.00
2023-03-18T23:38:28.657Z,17.20
2023-03-18T23:40:58.029Z,17.13
2023-03-18T23:43:26.672Z,21.43
2023-03-18T23:45:54.863Z,18.73
2023-03-18T23:48:23.053Z,18.80
2023-03-18T23:50:51.349Z,16.00
2023-03-18T23:53:19.413Z,18.13
2023-03-18T23:55:49.650Z,16.07
2023-03-18T23:58:19.320Z,18.80
